createdAt,value
2023-03-21T06:03:07.697Z,557.00
2023-03-21T06:04:08.738Z,557.00
2023-03-21T06:05:08.722Z,557.00
2023-03-21T06:06:08.755Z,555.00
2023-03-21T06:07:08.756Z,553.00
2023-03-21T06:08:08.816Z,552.00
2023-03-21T06:09:08.839Z,553.00
2023-03-21T06:10:08.872Z,556.00
2023-03-21T06:11:08.906Z,553.00
2023-03-21T06:12:08.929Z,552.00
2023-03-21T06:13:08.921Z,549.00
2023-03-21T06:14:08.905Z,550.00
2023-03-21T06:15:09.005Z,552.00
2023-03-21T06:16:08.970Z,553.00
2023-03-21T06:17:08.952Z,554.00
2023-03-21T06:18:09.020Z,554.00
2023-03-21T06:19:09.097Z,554.00
2023-03-21T06:20:09.119Z,555.00
2023-03-21T06:21:09.192Z,552.00
2023-03-21T06:22:09.257Z,551.00
2023-03-21T06:23:09.302Z,548.00
2023-03-21T06:24:09.374Z,548.00
2023-03-21T06:25:09.444Z,548.00
2023-03-21T06:26:09.492Z,547.00
2023-03-21T06:27:09.547Z,548.00
2023-03-21T06:28:09.599Z,549.00
2023-03-21T06:29:09.660Z,550.00
2023-03-21T06:30:09.720Z,549.00
2023-03-21T06:31:09.808Z,549.00
2023-03-21T06:32:09.833Z,552.00
2023-03-21T06:33:09.898Z,552.00
2023-03-21T06:34:09.946Z,554.00
2023-03-21T06:35:10.049Z,553.00
2023-03-21T06:36:09.090Z,554.00
2023-03-21T06:37:10.109Z,553.00
2023-03-21T06:38:10.153Z,554.00
2023-03-21T06:39:10.195Z,553.00
2023-03-21T06:40:10.237Z,552.00
2023-03-21T06:41:10.286Z,553.00
2023-03-21T06:42:10.330Z,552.00
2023-03-21T06:43:10.384Z,553.00
2023-03-21T06:44:10.408Z,553.00
2023-03-21T06:45:10.480Z,552.00
2023-03-21T06:46:10.505Z,548.00
2023-03-21T06:47:10.565Z,552.00
2023-03-21T06:48:10.660Z,555.00
2023-03-21T06:49:10.686Z,557.00
2023-03-21T06:50:10.780Z,554.00
2023-03-21T06:51:10.813Z,553.00
2023-03-21T06:52:10.824Z,555.00
2023-03-21T06:53:10.904Z,556.00
2023-03-21T06:54:11.365Z,556.00
2023-03-21T06:55:11.003Z,555.00
2023-03-21T06:56:11.078Z,554.00
2023-03-21T06:57:11.138Z,553.00
2023-03-21T06:58:11.209Z,550.00
2023-03-21T06:59:11.226Z,547.00
2023-03-21T07:00:11.289Z,547.00
2023-03-21T07:01:11.447Z,547.00
2023-03-21T07:02:11.510Z,545.00
2023-03-21T07:03:11.572Z,545.00
2023-03-21T07:04:11.570Z,545.00
2023-03-21T07:05:11.564Z,543.00
2023-03-21T07:06:11.658Z,544.00
2023-03-21T07:07:11.691Z,542.00
2023-03-21T07:08:10.743Z,543.00
2023-03-21T07:09:11.791Z,545.00
2023-03-21T07:10:11.871Z,549.00
2023-03-21T07:11:11.920Z,553.00
2023-03-21T07:12:11.972Z,553.00
2023-03-21T07:13:11.093Z,552.00
2023-03-21T07:14:12.097Z,554.00
2023-03-21T07:15:12.165Z,559.00
2023-03-21T07:16:12.274Z,566.00
2023-03-21T07:17:12.260Z,573.00
2023-03-21T07:18:11.322Z,579.00
2023-03-21T07:19:12.882Z,584.00
2023-03-21T07:20:11.446Z,596.00
2023-03-21T07:21:12.501Z,602.00
2023-03-21T07:22:11.559Z,608.00
2023-03-21T07:23:12.638Z,624.00
2023-03-21T07:24:11.670Z,633.00
2023-03-21T07:25:11.865Z,642.00
2023-03-21T07:26:12.787Z,642.00
2023-03-21T07:27:12.846Z,652.00
2023-03-21T07:28:12.921Z,671.00
2023-03-21T07:29:12.981Z,681.00
2023-03-21T07:30:13.044Z,687.00
2023-03-21T07:31:13.135Z,701.00
2023-03-21T07:32:13.162Z,704.00
2023-03-21T07:33:12.227Z,705.00
2023-03-21T07:34:13.287Z,709.00
2023-03-21T07:35:13.339Z,711.00
2023-03-21T07:36:13.426Z,713.00
2023-03-21T07:37:12.456Z,719.00
2023-03-21T07:38:13.523Z,731.00
2023-03-21T07:39:13.593Z,744.00
2023-03-21T07:40:13.623Z,751.00
2023-03-21T07:41:13.662Z,755.00
2023-03-21T07:42:12.744Z,759.00
2023-03-21T07:43:12.807Z,762.00
2023-03-21T07:44:13.859Z,766.00
2023-03-21T07:45:13.914Z,769.00
2023-03-21T07:46:13.971Z,774.00
2023-03-21T07:47:14.017Z,778.00
2023-03-21T07:48:14.113Z,783.00
2023-03-21T07:49:14.128Z,787.00
2023-03-21T07:50:13.239Z,787.00
2023-03-21T07:51:14.235Z,792.00
2023-03-21T07:52:14.300Z,795.00
2023-03-21T07:53:14.349Z,802.00
2023-03-21T07:54:14.399Z,806.00
2023-03-21T07:55:13.928Z,811.00
2023-03-21T07:56:13.528Z,818.00
2023-03-21T07:57:14.583Z,826.00
2023-03-21T07:58:14.642Z,829.00
2023-03-21T07:59:13.690Z,826.00
2023-03-21T08:00:14.745Z,818.00
2023-03-21T08:01:14.798Z,814.00
2023-03-21T08:04:14.985Z,805.00
2023-03-21T08:05:15.019Z,808.00
2023-03-21T08:06:14.073Z,808.00
2023-03-21T08:07:15.133Z,812.00
2023-03-21T08:08:15.185Z,821.00
2023-03-21T08:09:14.231Z,824.00
2023-03-21T08:10:15.327Z,823.00
2023-03-21T08:11:15.334Z,819.00
2023-03-21T08:12:15.396Z,814.00
2023-03-21T08:13:15.448Z,819.00
2023-03-21T08:14:15.493Z,828.00
2023-03-21T08:15:15.585Z,840.00
2023-03-21T08:16:15.695Z,840.00
2023-03-21T08:17:15.638Z,843.00
2023-03-21T08:18:15.682Z,847.00
2023-03-21T08:19:15.739Z,845.00
2023-03-21T08:20:15.789Z,846.00
2023-03-21T08:21:15.834Z,850.00
2023-03-21T08:22:15.874Z,850.00
2023-03-21T08:23:15.901Z,848.00
2023-03-21T08:24:15.960Z,848.00
2023-03-21T08:25:15.020Z,847.00
2023-03-21T08:26:15.071Z,848.00
2023-03-21T08:27:16.098Z,851.00
2023-03-21T08:28:16.137Z,853.00
2023-03-21T08:29:15.184Z,853.00
2023-03-21T08:30:16.207Z,854.00
2023-03-21T08:31:15.347Z,857.00
2023-03-21T08:32:16.301Z,858.00
2023-03-21T08:33:15.344Z,862.00
2023-03-21T08:34:16.400Z,861.00
2023-03-21T08:35:15.423Z,860.00
2023-03-21T08:36:16.464Z,860.00
2023-03-21T08:37:16.497Z,861.00
2023-03-21T08:38:15.564Z,869.00
2023-03-21T08:39:16.596Z,868.00
2023-03-21T08:40:15.640Z,867.00
2023-03-21T08:41:16.633Z,869.00
2023-03-21T08:42:16.688Z,865.00
2023-03-21T08:43:15.706Z,868.00
2023-03-21T08:44:16.735Z,874.00
2023-03-21T08:45:16.910Z,882.00
2023-03-21T08:46:15.891Z,880.00
2023-03-21T08:47:16.875Z,879.00
2023-03-21T08:48:16.957Z,875.00
2023-03-21T08:49:16.943Z,872.00
2023-03-21T08:50:17.413Z,875.00
2023-03-21T08:51:17.035Z,876.00
2023-03-21T08:52:16.073Z,884.00
2023-03-21T08:53:16.123Z,916.00
2023-03-21T08:54:16.161Z,913.00
2023-03-21T08:55:17.235Z,919.00
2023-03-21T08:56:16.258Z,917.00
2023-03-21T08:57:16.374Z,915.00
2023-03-21T08:58:16.304Z,915.00
2023-03-21T08:59:17.320Z,917.00
2023-03-21T09:00:16.373Z,970.00
2023-03-21T09:01:17.406Z,950.00
2023-03-21T09:02:17.471Z,877.00
2023-03-21T09:03:17.463Z,867.00
2023-03-21T09:04:16.529Z,851.00
2023-03-21T09:05:17.549Z,836.00
2023-03-21T09:06:16.578Z,827.00
2023-03-21T09:07:17.625Z,824.00
2023-03-21T09:08:17.662Z,824.00
2023-03-21T09:09:17.699Z,815.00
2023-03-21T09:12:16.811Z,813.00
2023-03-21T09:13:17.862Z,814.00
2023-03-21T09:14:19.215Z,823.00
2023-03-21T09:15:18.002Z,822.00
2023-03-21T09:16:17.064Z,818.00
2023-03-21T09:17:18.021Z,801.00
2023-03-21T09:20:20.182Z,816.00
2023-03-21T09:21:17.060Z,816.00
2023-03-21T09:25:18.051Z,832.00
2023-03-21T09:26:18.006Z,844.00
2023-03-21T09:27:18.003Z,855.00
2023-03-21T09:28:18.006Z,855.00
2023-03-21T09:29:16.987Z,858.00
2023-03-21T09:30:18.031Z,861.00
2023-03-21T09:32:17.964Z,851.00
2023-03-21T09:33:17.947Z,860.00
2023-03-21T09:34:17.951Z,854.00
2023-03-21T09:35:17.939Z,847.00
2023-03-21T09:36:18.003Z,843.00
2023-03-21T09:37:17.915Z,855.00
2023-03-21T09:38:17.921Z,853.00
2023-03-21T09:39:16.899Z,853.00
2023-03-21T09:40:17.923Z,852.00
2023-03-21T09:41:17.898Z,844.00
2023-03-21T09:42:17.885Z,839.00
2023-03-21T09:43:16.893Z,829.00
2023-03-21T09:44:17.869Z,813.00
2023-03-21T09:45:17.882Z,803.00
2023-03-21T09:46:16.973Z,803.00
2023-03-21T09:47:17.911Z,794.00
2023-03-21T09:48:17.916Z,789.00
2023-03-21T09:49:17.828Z,781.00
2023-03-21T09:50:17.865Z,774.00
2023-03-21T09:51:16.910Z,778.00
2023-03-21T09:52:17.835Z,789.00
2023-03-21T09:53:17.823Z,808.00
2023-03-21T09:54:17.823Z,826.00
2023-03-21T09:55:16.800Z,831.00
2023-03-21T09:56:16.963Z,832.00
2023-03-21T09:57:17.778Z,840.00
2023-03-21T09:58:16.773Z,832.00
2023-03-21T09:59:17.766Z,843.00
2023-03-21T10:00:17.747Z,849.00
2023-03-21T10:01:17.758Z,848.00
2023-03-21T10:02:16.752Z,855.00
2023-03-21T10:03:17.738Z,858.00
2023-03-21T10:04:17.767Z,863.00
2023-03-21T10:05:17.750Z,872.00
2023-03-21T10:06:16.719Z,879.00
2023-03-21T10:07:17.706Z,877.00
2023-03-21T10:08:18.379Z,874.00
2023-03-21T10:09:16.692Z,878.00
2023-03-21T10:10:17.681Z,886.00
2023-03-21T10:11:16.666Z,878.00
2023-03-21T10:12:17.663Z,875.00
2023-03-21T10:13:16.670Z,875.00
2023-03-21T10:14:17.671Z,879.00
2023-03-21T10:15:17.667Z,885.00
2023-03-21T10:16:17.860Z,888.00
2023-03-21T10:17:16.627Z,890.00
2023-03-21T10:18:16.649Z,886.00
2023-03-21T10:19:17.613Z,887.00
2023-03-21T10:21:37.200Z,891.00
2023-03-21T10:23:17.590Z,889.00
2023-03-21T10:24:17.568Z,881.00
2023-03-21T10:25:17.564Z,884.00
2023-03-21T10:28:17.541Z,874.00
2023-03-21T10:29:17.559Z,870.00
2023-03-21T10:30:16.538Z,870.00
2023-03-21T10:31:17.558Z,864.00
2023-03-21T10:32:17.522Z,841.00
2023-03-21T10:33:17.519Z,787.00
2023-03-21T10:34:16.519Z,800.00
2023-03-21T10:39:17.479Z,715.00
2023-03-21T10:40:17.456Z,706.00
2023-03-21T10:41:17.950Z,707.00
2023-03-21T10:42:17.468Z,738.00
2023-03-21T10:43:17.436Z,737.00
2023-03-21T10:44:17.436Z,767.00
2023-03-21T10:45:16.427Z,755.00
2023-03-21T10:46:17.634Z,750.00
2023-03-21T10:47:16.712Z,746.00
2023-03-21T10:48:17.606Z,738.00
2023-03-21T10:49:17.403Z,725.00
2023-03-21T10:50:16.509Z,695.00
2023-03-21T10:51:17.437Z,679.00
2023-03-21T10:52:17.368Z,666.00
2023-03-21T10:53:17.359Z,658.00
2023-03-21T10:54:17.361Z,652.00
2023-03-21T10:55:17.362Z,646.00
2023-03-21T10:56:17.357Z,640.00
2023-03-21T10:57:17.339Z,640.00
2023-03-21T10:58:17.348Z,638.00
2023-03-21T10:59:18.874Z,633.00
2023-03-21T11:00:17.352Z,635.00
2023-03-21T11:01:17.382Z,634.00
2023-03-21T11:02:17.336Z,636.00
2023-03-21T11:03:17.309Z,637.00
2023-03-21T11:04:17.307Z,641.00
2023-03-21T11:05:16.297Z,648.00
2023-03-21T11:06:17.337Z,659.00
2023-03-21T11:07:17.289Z,681.00
2023-03-21T11:08:17.283Z,688.00
2023-03-21T11:09:17.321Z,689.00
2023-03-21T11:10:28.009Z,693.00
2023-03-21T11:11:18.261Z,700.00
2023-03-21T11:12:16.268Z,708.00
2023-03-21T11:13:17.284Z,718.00
2023-03-21T11:14:17.267Z,719.00
2023-03-21T11:15:17.275Z,721.00
2023-03-21T11:16:17.325Z,724.00
2023-03-21T11:17:17.334Z,729.00
2023-03-21T11:18:17.334Z,737.00
2023-03-21T11:19:17.387Z,741.00
2023-03-21T11:20:17.441Z,748.00
2023-03-21T11:21:17.433Z,755.00
2023-03-21T11:22:17.485Z,762.00
2023-03-21T11:23:20.065Z,770.00
2023-03-21T11:24:17.471Z,775.00
2023-03-21T11:25:17.474Z,862.00
2023-03-21T11:26:16.461Z,865.00
2023-03-21T11:27:17.455Z,866.00
2023-03-21T11:28:17.452Z,864.00
2023-03-21T11:29:17.815Z,858.00
2023-03-21T11:30:17.461Z,852.00
2023-03-21T11:31:16.457Z,852.00
2023-03-21T11:32:17.424Z,857.00
2023-03-21T11:33:17.404Z,874.00
2023-03-21T11:34:17.390Z,875.00
2023-03-21T11:35:19.658Z,874.00
2023-03-21T11:36:17.466Z,871.00
2023-03-21T11:37:17.386Z,868.00
2023-03-21T11:38:17.392Z,870.00
2023-03-21T11:39:17.356Z,874.00
2023-03-21T11:40:17.347Z,883.00
2023-03-21T11:41:18.409Z,889.00
2023-03-21T11:42:17.476Z,894.00
2023-03-21T11:43:16.334Z,891.00
2023-03-21T11:44:17.329Z,888.00
2023-03-21T11:45:17.324Z,887.00
2023-03-21T11:46:17.394Z,887.00
2023-03-21T11:47:17.485Z,884.00
2023-03-21T11:48:17.374Z,879.00
2023-03-21T11:49:17.318Z,878.00
2023-03-21T11:50:16.289Z,875.00
2023-03-21T11:51:17.283Z,873.00
2023-03-21T11:52:17.472Z,865.00
2023-03-21T11:53:17.323Z,861.00
2023-03-21T11:54:17.412Z,864.00
2023-03-21T11:55:17.401Z,862.00
2023-03-21T11:56:17.442Z,863.00
2023-03-21T11:57:16.487Z,868.00
2023-03-21T11:58:16.527Z,871.00
2023-03-21T11:59:16.551Z,875.00
2023-03-21T12:00:17.588Z,886.00
2023-03-21T12:01:16.629Z,898.00
2023-03-21T12:02:17.729Z,904.00
2023-03-21T12:03:17.686Z,906.00
2023-03-21T12:04:17.857Z,908.00
2023-03-21T12:05:17.765Z,909.00
2023-03-21T12:06:17.811Z,912.00
2023-03-21T12:07:17.830Z,914.00
2023-03-21T12:08:17.865Z,918.00
2023-03-21T12:09:18.624Z,922.00
2023-03-21T12:10:17.961Z,924.00
2023-03-21T12:11:17.967Z,932.00
2023-03-21T12:12:22.014Z,934.00
2023-03-21T12:13:17.990Z,960.00
2023-03-21T12:14:17.989Z,982.00
2023-03-21T12:15:17.969Z,1023.00
2023-03-21T12:16:18.027Z,1029.00
2023-03-21T12:17:17.983Z,1017.00
2023-03-21T12:18:16.962Z,1012.00
2023-03-21T12:19:17.955Z,1012.00
2023-03-21T12:20:16.946Z,1011.00
2023-03-21T12:21:17.942Z,1008.00
2023-03-21T12:22:17.947Z,1011.00
2023-03-21T12:23:17.979Z,1010.00
2023-03-21T12:24:17.922Z,1015.00
2023-03-21T12:25:17.913Z,1020.00
2023-03-21T12:26:17.935Z,1023.00
2023-03-21T12:27:17.913Z,1024.00
2023-03-21T12:28:30.120Z,1031.00
2023-03-21T12:29:17.907Z,1043.00
2023-03-21T12:30:17.886Z,1046.00
2023-03-21T12:31:17.944Z,1050.00
2023-03-21T12:32:17.871Z,1049.00
2023-03-21T12:33:17.846Z,1054.00
2023-03-21T12:34:17.854Z,1061.00
2023-03-21T12:35:17.851Z,1075.00
2023-03-21T12:36:17.933Z,1087.00
2023-03-21T12:37:17.008Z,1094.00
2023-03-21T12:38:16.844Z,1108.00
2023-03-21T12:39:17.820Z,1120.00
2023-03-21T12:40:17.795Z,1122.00
2023-03-21T12:41:16.818Z,1123.00
2023-03-21T12:42:18.149Z,1127.00
2023-03-21T12:43:17.772Z,1128.00
2023-03-21T12:44:17.777Z,1126.00
2023-03-21T12:45:17.754Z,1125.00
2023-03-21T12:46:17.819Z,1127.00
2023-03-21T12:47:17.775Z,1127.00
2023-03-21T12:48:17.774Z,1117.00
2023-03-21T12:49:17.738Z,1110.00
2023-03-21T12:50:17.735Z,1104.00
2023-03-21T12:52:17.722Z,1093.00
2023-03-21T12:53:17.698Z,1088.00
2023-03-21T12:54:17.696Z,1084.00
2023-03-21T12:55:17.697Z,1078.00
2023-03-21T12:56:17.673Z,1069.00
2023-03-21T12:57:17.684Z,1066.00
2023-03-21T12:58:17.797Z,1061.00
2023-03-21T12:59:17.649Z,1052.00
2023-03-21T13:00:17.646Z,1040.00
2023-03-21T13:01:17.698Z,1035.00
2023-03-21T13:02:17.638Z,1031.00
2023-03-21T13:03:19.600Z,1021.00
2023-03-21T13:04:17.647Z,1018.00
2023-03-21T13:05:16.616Z,1009.00
2023-03-21T13:06:16.609Z,1006.00
2023-03-21T13:07:16.589Z,999.00
2023-03-21T13:08:17.596Z,998.00
2023-03-21T13:09:21.262Z,993.00
2023-03-21T13:10:17.570Z,989.00
2023-03-21T13:11:17.626Z,987.00
2023-03-21T13:12:17.565Z,983.00
2023-03-21T13:13:17.540Z,974.00
2023-03-21T13:14:17.666Z,969.00
2023-03-21T13:15:23.771Z,964.00
2023-03-21T13:16:17.557Z,966.00
2023-03-21T13:17:16.524Z,968.00
2023-03-21T13:18:17.529Z,968.00
2023-03-21T13:19:16.503Z,965.00
2023-03-21T13:20:17.500Z,960.00
2023-03-21T13:21:17.492Z,958.00
2023-03-21T13:23:17.534Z,954.00
2023-03-21T13:24:17.478Z,953.00
2023-03-21T13:25:17.474Z,948.00
2023-03-21T13:26:17.441Z,947.00
2023-03-21T13:27:17.443Z,942.00
2023-03-21T13:30:16.637Z,932.00
2023-03-21T13:31:17.771Z,930.00
2023-03-21T13:32:17.655Z,947.00
2023-03-21T13:34:17.680Z,1010.00
2023-03-21T13:35:17.692Z,988.00
2023-03-21T13:36:16.811Z,937.00
2023-03-21T13:37:17.778Z,950.00
2023-03-21T13:38:17.803Z,1053.00
2023-03-21T13:39:17.812Z,1070.00
2023-03-21T13:40:17.829Z,1057.00
2023-03-21T13:41:17.925Z,1059.00
2023-03-21T13:42:17.897Z,1079.00
2023-03-21T13:43:25.428Z,1085.00
2023-03-21T13:44:17.894Z,1114.00
2023-03-21T13:45:17.891Z,1176.00
2023-03-21T13:46:18.107Z,1150.00
2023-03-21T13:47:17.895Z,1196.00
2023-03-21T13:50:17.897Z,1287.00
2023-03-21T13:51:17.853Z,1290.00
2023-03-21T13:52:16.860Z,1304.00
2023-03-21T13:53:17.845Z,1314.00
2023-03-21T13:54:17.826Z,1326.00
2023-03-21T13:55:17.820Z,1329.00
2023-03-21T13:56:17.832Z,1351.00
2023-03-21T13:57:17.820Z,1371.00
2023-03-21T13:58:17.808Z,1365.00
2023-03-21T14:00:17.799Z,1410.00
2023-03-21T14:01:16.904Z,1410.00
2023-03-21T14:02:17.908Z,1422.00
2023-03-21T14:03:17.781Z,1430.00
2023-03-21T14:04:17.773Z,1450.00
2023-03-21T14:05:17.847Z,1479.00
2023-03-21T14:06:17.747Z,1478.00
2023-03-21T14:08:24.865Z,1487.00
2023-03-21T14:14:17.685Z,1557.00
2023-03-21T14:15:17.670Z,1568.00
2023-03-21T14:16:16.680Z,1601.00
2023-03-21T14:17:17.659Z,1608.00
2023-03-21T14:18:27.869Z,1617.00
2023-03-21T14:19:17.656Z,1672.00
2023-03-21T14:20:17.668Z,1659.00
2023-03-21T14:21:23.347Z,1648.00
2023-03-21T14:22:17.626Z,1643.00
2023-03-21T14:23:16.626Z,1642.00
2023-03-21T14:24:17.620Z,1648.00
2023-03-21T14:25:17.615Z,1649.00
2023-03-21T14:26:17.610Z,1680.00
2023-03-21T14:27:17.597Z,1700.00
2023-03-21T14:28:16.591Z,1693.00
2023-03-21T14:29:25.767Z,1751.00
2023-03-21T14:30:17.584Z,1755.00
2023-03-21T14:31:17.666Z,1750.00
2023-03-21T14:32:17.563Z,1755.00
2023-03-21T14:33:17.558Z,1779.00
2023-03-21T14:34:16.659Z,1779.00
2023-03-21T14:35:16.578Z,1780.00
2023-03-21T14:36:17.615Z,1773.00
2023-03-21T14:37:17.537Z,1777.00
2023-03-21T14:38:16.539Z,1811.00
2023-03-21T14:39:17.510Z,1842.00
2023-03-21T14:40:17.504Z,1836.00
2023-03-21T14:41:17.508Z,1834.00
2023-03-21T14:42:17.508Z,1833.00
2023-03-21T14:43:17.497Z,1843.00
2023-03-21T14:44:17.544Z,1875.00
2023-03-21T14:45:17.507Z,1872.00
2023-03-21T14:46:17.510Z,1879.00
2023-03-21T14:47:17.458Z,1894.00
2023-03-21T14:48:17.599Z,1895.00
2023-03-21T14:49:17.571Z,1879.00
2023-03-21T14:50:17.803Z,1872.00
2023-03-21T14:51:16.654Z,1860.00
2023-03-21T14:52:17.696Z,1851.00
2023-03-21T14:53:17.725Z,1849.00
2023-03-21T14:54:17.798Z,1812.00
2023-03-21T14:55:17.807Z,1794.00
2023-03-21T14:56:17.853Z,1807.00
2023-03-21T14:57:16.918Z,1834.00
2023-03-21T14:58:16.936Z,1849.00
2023-03-21T14:59:17.953Z,1855.00
2023-03-21T15:00:17.950Z,1860.00
2023-03-21T15:01:16.991Z,1874.00
2023-03-21T15:02:18.034Z,1885.00
2023-03-21T15:03:17.960Z,1901.00
2023-03-21T15:04:17.949Z,1926.00
2023-03-21T15:05:18.023Z,1928.00
2023-03-21T15:06:18.088Z,2078.00
2023-03-21T15:07:17.965Z,2030.00
2023-03-21T15:08:18.033Z,2036.00
2023-03-21T15:09:18.089Z,2011.00
2023-03-21T15:10:18.201Z,1978.00
2023-03-21T15:11:18.222Z,1947.00
2023-03-21T15:12:18.263Z,1941.00
2023-03-21T15:13:18.344Z,1936.00
2023-03-21T15:14:18.373Z,1920.00
2023-03-21T15:15:18.424Z,1901.00
2023-03-21T15:16:18.479Z,1882.00
2023-03-21T15:17:18.451Z,1870.00
2023-03-21T15:18:18.464Z,1854.00
2023-03-21T15:19:18.452Z,1845.00
2023-03-21T15:20:18.466Z,1844.00
2023-03-21T15:21:18.459Z,1840.00
2023-03-21T15:22:18.585Z,1839.00
2023-03-21T15:23:18.455Z,1834.00
2023-03-21T15:24:18.445Z,1829.00
2023-03-21T15:25:18.440Z,1828.00
2023-03-21T15:26:18.435Z,1823.00
2023-03-21T15:27:18.439Z,1809.00
2023-03-21T15:28:18.435Z,1696.00
2023-03-21T15:29:18.449Z,1653.00
2023-03-21T15:30:18.455Z,1584.00
2023-03-21T15:31:18.546Z,1546.00
2023-03-21T15:32:18.468Z,1420.00
2023-03-21T15:33:17.479Z,1407.00
2023-03-21T15:34:18.489Z,1400.00
2023-03-21T15:35:18.535Z,1480.00
2023-03-21T15:36:18.554Z,1511.00
2023-03-21T15:37:18.543Z,1511.00
2023-03-21T15:38:18.666Z,1507.00
2023-03-21T15:39:18.564Z,1509.00
2023-03-21T15:40:18.611Z,1513.00
2023-03-21T15:41:17.597Z,1510.00
2023-03-21T15:42:17.623Z,1498.00
2023-03-21T15:43:17.653Z,1396.00
2023-03-21T15:44:18.649Z,1349.00
2023-03-21T15:45:17.680Z,1333.00
2023-03-21T15:46:17.774Z,1321.00
2023-03-21T15:47:18.717Z,1340.00
2023-03-21T15:48:18.789Z,1349.00
2023-03-21T15:49:18.761Z,1359.00
2023-03-21T15:50:18.785Z,1360.00
2023-03-21T15:51:17.823Z,1341.00
2023-03-21T15:52:18.856Z,1333.00
2023-03-21T15:53:18.896Z,1320.00
2023-03-21T15:54:19.050Z,1277.00
2023-03-21T15:55:18.953Z,1281.00
2023-03-21T15:56:18.986Z,1281.00
2023-03-21T15:57:19.025Z,1285.00
2023-03-21T15:58:19.053Z,1290.00
2023-03-21T15:59:19.084Z,1280.00
2023-03-21T16:00:19.120Z,1226.00
2023-03-21T16:01:19.202Z,1222.00
2023-03-21T16:02:19.237Z,1230.00
2023-03-21T16:03:19.302Z,1240.00
2023-03-21T16:04:19.262Z,1246.00
2023-03-21T16:05:19.309Z,1244.00
2023-03-21T16:06:19.350Z,1246.00
2023-03-21T16:07:19.429Z,1239.00
2023-03-21T16:08:19.427Z,1228.00
2023-03-21T16:09:19.468Z,1225.00
2023-03-21T16:10:18.646Z,1224.00
2023-03-21T16:11:19.558Z,1226.00
2023-03-21T16:12:19.618Z,1226.00
2023-03-21T16:13:18.710Z,1222.00
2023-03-21T16:14:19.695Z,1218.00
2023-03-21T16:15:19.850Z,1214.00
2023-03-21T16:16:19.946Z,1211.00
2023-03-21T16:17:18.840Z,1211.00
2023-03-21T16:18:19.893Z,1209.00
2023-03-21T16:19:19.951Z,1204.00
2023-03-21T16:20:20.004Z,1200.00
2023-03-21T16:21:20.077Z,1197.00
2023-03-21T16:22:20.113Z,1197.00
2023-03-21T16:23:20.165Z,1194.00
2023-03-21T16:24:20.233Z,1192.00
2023-03-21T16:25:20.275Z,1188.00
2023-03-21T16:26:20.365Z,1190.00
2023-03-21T16:27:19.388Z,1187.00
2023-03-21T16:28:20.415Z,1174.00
2023-03-21T16:29:20.488Z,1164.00
